createdAt,value
2022-09-17T00:03:38.216Z,85.72001
2022-09-17T00:08:45.112Z,85.55
2022-09-17T00:13:52.484Z,85.53
2022-09-17T00:18:59.505Z,85.15
2022-09-17T00:24:18.111Z,84.89
2022-09-17T00:29:25.359Z,84.93
2022-09-17T00:34:32.721Z,85.31
2022-09-17T00:39:39.779Z,85.74
2022-09-17T00:44:48.052Z,86.18
2022-09-17T00:49:56.746Z,86.73
2022-09-17T00:55:04.316Z,86.87
2022-09-17T01:00:13.031Z,87.43
2022-09-17T01:05:22.413Z,87.46
2022-09-17T01:10:30.859Z,87.55
2022-09-17T01:15:38.845Z,87.63
2022-09-17T01:20:46.957Z,88.03
2022-09-17T01:25:55.385Z,88.33
2022-09-17T01:31:04.184Z,88.5
2022-09-17T01:36:13.658Z,88.67
2022-09-17T01:41:21.574Z,88.68
2022-09-17T01:46:29.744Z,88.72001
2022-09-17T01:51:36.569Z,88.9
2022-09-17T01:56:45.577Z,89.05001
2022-09-17T02:01:53.727Z,89.35
2022-09-17T02:07:02.067Z,89.39
2022-09-17T02:12:09.280Z,89.64
2022-09-17T02:17:16.475Z,89.83001
2022-09-17T02:22:23.692Z,89.78
2022-09-17T02:27:30.866Z,90.24
2022-09-17T02:32:38.951Z,90.39001
2022-09-17T02:37:46.792Z,90.45
2022-09-17T02:42:53.693Z,90.03
2022-09-17T02:48:00.896Z,89.76001
2022-09-17T02:53:07.462Z,89.64
2022-09-17T02:58:16.171Z,89.54
2022-09-17T03:03:22.492Z,89.46
2022-09-17T03:08:30.442Z,89.66001
2022-09-17T03:13:37.539Z,89.56
2022-09-17T03:18:45.297Z,89.39
2022-09-17T03:23:53.215Z,89.46
2022-09-17T03:29:01.197Z,89.38
2022-09-17T03:34:09.422Z,89.5
2022-09-17T03:39:17.483Z,89.74
2022-09-17T03:44:23.927Z,89.82
2022-09-17T03:49:32.569Z,89.65
2022-09-17T03:54:41.336Z,89.21
2022-09-17T03:59:49.353Z,88.14
2022-09-17T04:04:57.621Z,87.7
2022-09-17T04:10:05.769Z,87.65
2022-09-17T04:15:14.050Z,87.6
2022-09-17T04:20:24.861Z,87.78
2022-09-17T04:25:32.455Z,87.74
2022-09-17T04:30:39.063Z,87.44
2022-09-17T04:35:47.666Z,87.86
2022-09-17T04:40:55.803Z,88.2
2022-09-17T04:46:03.138Z,88.47
2022-09-17T04:51:12.030Z,88.5
2022-09-17T04:56:18.833Z,87.83
2022-09-17T05:01:26.705Z,87.74
2022-09-17T05:06:34.136Z,87.51
2022-09-17T05:11:41.765Z,87.79
2022-09-17T05:16:48.304Z,86.88
2022-09-17T05:21:56.660Z,86.76001
2022-09-17T05:27:03.929Z,86.64001
2022-09-17T05:32:11.775Z,86.51
2022-09-17T05:37:19.297Z,87.0
2022-09-17T05:42:28.021Z,87.26001
2022-09-17T05:47:35.657Z,87.46
2022-09-17T05:52:44.057Z,87.29
2022-09-17T05:57:51.666Z,87.35
2022-09-17T06:03:00.972Z,87.01
2022-09-17T06:08:08.676Z,86.91001
2022-09-17T06:13:16.197Z,87.02
2022-09-17T06:18:23.974Z,86.28
2022-09-17T06:23:31.386Z,86.67
2022-09-17T06:28:38.410Z,86.0
2022-09-17T06:33:45.857Z,86.94
2022-09-17T06:38:53.039Z,83.2
2022-09-17T06:44:01.206Z,83.18
2022-09-17T06:49:08.810Z,81.54
2022-09-17T06:54:16.613Z,84.19001
2022-09-17T06:59:24.296Z,81.29001
2022-09-17T07:04:31.605Z,80.33999
2022-09-17T07:09:39.957Z,79.55
2022-09-17T07:14:48.522Z,84.28
2022-09-17T07:19:57.759Z,80.61
2022-09-17T07:25:05.540Z,78.99
2022-09-17T07:30:13.496Z,80.11001
2022-09-17T07:35:21.085Z,77.63
2022-09-17T07:40:27.780Z,78.05
2022-09-17T07:45:35.574Z,77.66
2022-09-17T07:50:43.828Z,77.0
2022-09-17T07:55:52.236Z,81.74
2022-09-17T08:01:08.876Z,79.67
2022-09-17T08:06:16.889Z,75.45
2022-09-17T08:11:25.027Z,74.98001
2022-09-17T08:16:31.663Z,77.34
2022-09-17T08:21:40.094Z,81.17
2022-09-17T08:26:48.162Z,81.6
2022-09-17T08:31:56.460Z,79.47
2022-09-17T08:37:03.618Z,75.24
2022-09-17T08:42:10.817Z,79.77
2022-09-17T08:47:18.779Z,79.56
2022-09-17T08:52:25.870Z,80.51001
2022-09-17T08:57:32.551Z,75.84
2022-09-17T09:02:41.103Z,78.25
2022-09-17T09:07:48.721Z,74.24
2022-09-17T09:12:56.618Z,74.84
2022-09-17T09:18:05.341Z,72.27
2022-09-17T09:23:12.900Z,74.74
2022-09-17T09:28:21.305Z,70.66
2022-09-17T09:33:27.943Z,73.94001
2022-09-17T09:38:35.141Z,72.66
2022-09-17T09:43:42.976Z,69.43
2022-09-17T09:48:51.412Z,73.17
2022-09-17T09:53:59.167Z,68.87001
2022-09-17T09:59:07.419Z,69.49
2022-09-17T10:04:15.005Z,67.98
2022-09-17T10:09:22.817Z,68.85
2022-09-17T10:14:30.019Z,68.32
2022-09-17T10:19:37.057Z,66.7
2022-09-17T10:24:45.567Z,66.16001
2022-09-17T10:29:53.371Z,67.34
2022-09-17T10:35:00.625Z,66.36
2022-09-17T10:40:08.267Z,67.95
2022-09-17T10:45:17.006Z,65.47
2022-09-17T10:50:24.250Z,66.91
2022-09-17T10:55:32.357Z,67.56
2022-09-17T11:00:40.963Z,65.85
2022-09-17T11:05:48.472Z,68.85
2022-09-17T11:10:55.613Z,69.51
2022-09-17T11:16:03.664Z,68.34
2022-09-17T11:21:11.356Z,65.82
2022-09-17T11:26:19.498Z,67.4
2022-09-17T11:31:26.993Z,65.52
2022-09-17T11:36:33.828Z,67.62001
2022-09-17T11:41:41.611Z,67.15
2022-09-17T11:46:48.835Z,65.96
2022-09-17T11:52:02.750Z,66.19
2022-09-17T11:57:10.016Z,65.16
2022-09-17T12:02:18.134Z,67.89
2022-09-17T12:07:26.325Z,67.46
2022-09-17T12:12:34.520Z,65.85
2022-09-17T12:17:43.174Z,65.61
2022-09-17T12:22:50.501Z,66.06
2022-09-17T12:27:58.991Z,66.39
2022-09-17T12:33:07.132Z,70.92
2022-09-17T12:38:15.430Z,65.82
2022-09-17T12:44:04.095Z,60.75
2022-09-17T12:49:12.075Z,64.8
2022-09-17T12:54:19.137Z,66.37001
2022-09-17T12:59:27.532Z,67.83
2022-09-17T13:04:36.649Z,67.09
2022-09-17T13:09:43.988Z,65.28
2022-09-17T13:14:51.777Z,66.74
2022-09-17T13:19:59.625Z,66.45
2022-09-17T13:25:06.812Z,68.54
2022-09-17T13:30:15.177Z,69.19
2022-09-17T13:35:23.519Z,69.97
2022-09-17T13:40:31.420Z,68.78
2022-09-17T13:45:38.869Z,69.47
2022-09-17T13:50:47.662Z,69.92
2022-09-17T13:55:55.189Z,70.87
2022-09-17T14:01:04.230Z,69.64
2022-09-17T14:06:14.026Z,70.85
2022-09-17T14:11:23.039Z,72.83
2022-09-17T14:16:32.149Z,71.56
2022-09-17T14:21:39.515Z,75.77
2022-09-17T14:26:47.267Z,71.56
2022-09-17T14:31:54.811Z,74.43
2022-09-17T14:37:02.981Z,73.02
2022-09-17T14:42:10.172Z,72.3
2022-09-17T14:47:17.378Z,76.28
2022-09-17T14:52:25.203Z,73.16
2022-09-17T14:57:33.064Z,74.3
2022-09-17T15:02:40.263Z,74.08
2022-09-17T15:07:48.614Z,72.34
2022-09-17T15:12:55.942Z,73.34
2022-09-17T15:18:03.137Z,72.43
2022-09-17T15:23:10.462Z,73.96
2022-09-17T15:28:18.234Z,72.83
2022-09-17T15:33:25.501Z,75.14
2022-09-17T15:38:33.655Z,74.32
2022-09-17T15:43:41.918Z,73.43
2022-09-17T15:48:49.848Z,74.72
2022-09-17T15:53:57.374Z,74.26
2022-09-17T15:59:05.881Z,74.32
2022-09-17T16:04:14.228Z,74.75
2022-09-17T16:09:21.677Z,72.32
2022-09-17T16:14:28.798Z,71.62
2022-09-17T16:19:36.612Z,73.54
2022-09-17T16:24:43.200Z,73.06
2022-09-17T16:29:51.552Z,74.69
2022-09-17T16:34:59.589Z,74.57
2022-09-17T16:40:07.745Z,73.96
2022-09-17T16:45:17.098Z,74.48
2022-09-17T16:50:24.308Z,74.98001
2022-09-17T16:55:39.032Z,74.81
2022-09-17T17:01:26.036Z,74.24
2022-09-17T17:06:33.157Z,73.38
2022-09-17T17:11:56.249Z,73.76
2022-09-17T17:17:04.269Z,72.79
2022-09-17T17:22:11.457Z,73.35
2022-09-17T17:27:23.616Z,74.14
2022-09-17T17:32:32.584Z,74.37
2022-09-17T17:37:40.146Z,73.7
2022-09-17T17:42:47.358Z,73.97
2022-09-17T17:47:55.456Z,73.5
2022-09-17T17:53:03.660Z,73.64
2022-09-17T17:58:11.783Z,73.62
2022-09-17T18:03:19.094Z,74.92
2022-09-17T18:08:28.109Z,75.07
2022-09-17T18:13:35.885Z,73.80001
2022-09-17T18:18:43.829Z,74.13
2022-09-17T18:23:51.338Z,74.04
2022-09-17T18:28:59.748Z,73.82
2022-09-17T18:34:07.348Z,73.59
2022-09-17T18:39:14.169Z,74.74
2022-09-17T18:44:23.068Z,74.29
2022-09-17T18:49:30.773Z,74.69
2022-09-17T18:54:40.198Z,74.53
2022-09-17T18:59:48.376Z,74.78
2022-09-17T19:04:56.521Z,74.38
2022-09-17T19:10:04.353Z,74.08
2022-09-17T19:15:13.433Z,74.21
2022-09-17T19:20:21.379Z,73.26
2022-09-17T19:25:31.014Z,72.52
2022-09-17T19:30:38.955Z,72.84
2022-09-17T19:35:47.353Z,72.75
2022-09-17T19:40:54.650Z,71.77
2022-09-17T19:46:01.811Z,71.74
2022-09-17T19:51:09.051Z,71.31
2022-09-17T19:56:15.673Z,71.33
2022-09-17T20:01:22.859Z,71.4
2022-09-17T20:06:31.532Z,72.26
2022-09-17T20:11:39.115Z,72.56
2022-09-17T20:16:48.202Z,71.56
2022-09-17T20:21:56.997Z,71.94
2022-09-17T20:27:04.522Z,71.77
2022-09-17T20:32:11.824Z,71.85
2022-09-17T20:37:18.454Z,72.35
2022-09-17T20:42:27.128Z,71.64
2022-09-17T20:47:35.484Z,72.4
2022-09-17T20:52:43.760Z,72.26
2022-09-17T20:57:51.673Z,72.01
2022-09-17T21:02:59.816Z,73.09
2022-09-17T21:08:06.708Z,72.62001
2022-09-17T21:13:18.316Z,72.95
2022-09-17T21:18:26.306Z,73.43
2022-09-17T21:23:33.437Z,73.27
2022-09-17T21:28:41.236Z,73.06
2022-09-17T21:33:48.418Z,73.3
2022-09-17T21:41:59.689Z,73.68
2022-09-17T21:47:06.243Z,72.92
2022-09-17T21:52:14.126Z,73.1
2022-09-17T21:57:22.597Z,73.44
2022-09-17T22:02:29.362Z,73.08
2022-09-17T22:07:37.211Z,73.39
2022-09-17T22:12:45.131Z,72.96
2022-09-17T22:17:52.835Z,73.15
2022-09-17T22:23:00.102Z,74.06
2022-09-17T22:28:08.775Z,73.96
2022-09-17T22:33:17.680Z,74.7
2022-09-17T22:38:28.633Z,74.89
2022-09-17T22:43:36.540Z,74.55
2022-09-17T22:48:45.918Z,74.99
2022-09-17T22:53:54.403Z,75.18
2022-09-17T22:59:02.495Z,74.61
2022-09-17T23:04:09.826Z,74.82
2022-09-17T23:09:18.532Z,74.78
2022-09-17T23:14:25.747Z,74.31
2022-09-17T23:19:32.812Z,74.82
2022-09-17T23:24:39.938Z,75.03
2022-09-17T23:29:47.781Z,74.29
2022-09-17T23:34:55.929Z,73.74
2022-09-17T23:40:05.171Z,74.6
2022-09-17T23:45:12.557Z,73.98
2022-09-17T23:50:19.202Z,74.05
2022-09-17T23:55:27.081Z,73.67
